Time;durP1;ratioP1;P1;durP2;ratioP2;P2;SDS_P1;SDS_P2;PMS_P1;PMS_P2;Temp;Humidity;BMP_temperature;BMP_pressure;BME280_temperature;BME280_humidity;BME280_pressure;Samples;Min_cycle;Max_cycle;Signal;HPM_P1;HPM_P2
2022/03/24 00:00:12;;;;;;;36.37;23.83;;;6.90;1.00;;;;;;6311581;28;20462;-55
2022/03/24 00:03:19;;;;;;;34.10;23.77;;;6.70;1.00;;;;;;6307067;28;20320;-54
2022/03/24 00:06:27;;;;;;;32.37;23.07;;;6.60;1.00;;;;;;6313519;28;20236;-55
2022/03/24 00:09:30;;;;;;;38.30;25.03;;;6.60;1.00;;;;;;6298744;28;20373;-54
2022/03/24 00:12:34;;;;;;;32.43;23.57;;;6.70;1.00;;;;;;6308342;28;20286;-53
2022/03/24 00:15:36;;;;;;;34.43;24.23;;;6.60;1.00;;;;;;6312355;28;20236;-53
2022/03/24 00:18:40;;;;;;;32.20;22.77;;;6.60;1.00;;;;;;6312683;28;20264;-55
2022/03/24 00:21:43;;;;;;;33.53;24.37;;;6.50;1.00;;;;;;6310334;28;20703;-54
2022/03/24 00:24:46;;;;;;;37.63;24.17;;;6.60;1.00;;;;;;6313476;28;20246;-54
2022/03/24 00:27:49;;;;;;;33.90;24.47;;;6.60;1.00;;;;;;6311495;28;20229;-54
2022/03/24 00:30:51;;;;;;;31.87;23.20;;;6.40;1.00;;;;;;6308613;28;20777;-54
2022/03/24 00:33:56;;;;;;;31.90;23.97;;;6.40;1.00;;;;;;6312848;28;20238;-57
2022/03/24 00:36:58;;;;;;;36.70;24.43;;;6.40;1.00;;;;;;6308391;28;20236;-54
2022/03/24 00:40:06;;;;;;;35.87;24.37;;;6.30;1.00;;;;;;6300730;28;20744;-54
2022/03/24 00:43:09;;;;;;;34.70;23.13;;;6.30;1.00;;;;;;6307608;28;20327;-54
2022/03/24 00:46:12;;;;;;;35.30;24.07;;;6.50;1.00;;;;;;6308755;28;20249;-54
2022/03/24 00:49:16;;;;;;;32.80;23.53;;;6.50;1.00;;;;;;6310946;28;20767;-55
2022/03/24 00:52:19;;;;;;;38.43;24.03;;;6.20;1.00;;;;;;6311334;28;20370;-55
2022/03/24 00:55:21;;;;;;;31.90;23.63;;;6.40;1.00;;;;;;6310252;28;20228;-55
2022/03/24 00:58:24;;;;;;;35.83;24.60;;;6.30;1.00;;;;;;6303848;28;20290;-56
2022/03/24 01:01:27;;;;;;;32.17;23.10;;;6.20;1.00;;;;;;6304601;28;20825;-55
2022/03/24 01:04:31;;;;;;;34.23;23.93;;;6.10;1.00;;;;;;6289759;28;20245;-54
2022/03/24 01:07:34;;;;;;;34.60;24.13;;;6.10;1.00;;;;;;6310067;28;20854;-54
2022/03/24 01:10:37;;;;;;;37.90;25.83;;;5.90;1.00;;;;;;6285855;28;20252;-55
2022/03/24 01:13:41;;;;;;;34.67;23.97;;;6.20;1.00;;;;;;6311155;28;20317;-54
2022/03/24 01:16:47;;;;;;;37.57;25.67;;;6.30;1.00;;;;;;6295079;28;20421;-53
2022/03/24 01:19:51;;;;;;;36.10;23.37;;;6.00;1.00;;;;;;6300073;28;20271;-54
2022/03/24 01:22:54;;;;;;;32.70;23.23;;;6.20;1.00;;;;;;6298609;28;20315;-53
2022/03/24 01:25:59;;;;;;;31.30;22.77;;;5.90;1.00;;;;;;6307974;28;20258;-54
2022/03/24 01:29:02;;;;;;;31.77;23.07;;;6.00;1.00;;;;;;6303567;28;20305;-54
2022/03/24 01:32:05;;;;;;;34.73;23.30;;;6.10;1.00;;;;;;6309660;28;20705;-53
2022/03/24 01:35:10;;;;;;;37.90;25.17;;;5.80;1.00;;;;;;6302523;28;20303;-55
2022/03/24 01:38:12;;;;;;;33.87;23.37;;;5.90;1.00;;;;;;6303406;28;20506;-54
2022/03/24 01:41:15;;;;;;;36.87;25.30;;;6.00;1.00;;;;;;6309963;28;20232;-55
2022/03/24 01:44:20;;;;;;;33.37;24.17;;;6.00;1.00;;;;;;6305912;28;20367;-53
2022/03/24 01:47:23;;;;;;;35.33;23.17;;;5.60;1.00;;;;;;6305213;28;20293;-54
2022/03/24 01:50:27;;;;;;;33.60;23.40;;;5.60;1.00;;;;;;6310013;28;20224;-54
2022/03/24 01:53:30;;;;;;;34.70;23.50;;;5.90;1.00;;;;;;6308864;28;20584;-54
2022/03/24 01:56:33;;;;;;;39.00;25.97;;;5.80;1.00;;;;;;6307101;28;20323;-54
2022/03/24 01:59:37;;;;;;;38.60;25.03;;;5.60;1.00;;;;;;6308134;28;20393;-54
2022/03/24 02:02:41;;;;;;;34.33;24.60;;;5.50;1.00;;;;;;6300128;28;20653;-54
2022/03/24 02:05:46;;;;;;;33.77;24.87;;;5.70;1.00;;;;;;6309235;28;20239;-54
2022/03/24 02:08:48;;;;;;;34.67;24.33;;;5.50;1.00;;;;;;6297432;28;20773;-54
2022/03/24 02:11:51;;;;;;;36.53;25.27;;;5.30;1.00;;;;;;6302951;28;20239;-54
2022/03/24 02:14:59;;;;;;;39.60;25.00;;;5.60;1.00;;;;;;6309205;28;20793;-54
2022/03/24 02:18:01;;;;;;;34.87;24.27;;;5.50;1.00;;;;;;6309147;28;20221;-57
2022/03/24 02:21:05;;;;;;;37.73;24.37;;;5.60;1.00;;;;;;6303105;28;20232;-54
2022/03/24 02:24:12;;;;;;;34.77;24.47;;;5.60;1.00;;;;;;6300188;28;20229;-54
2022/03/24 02:27:15;;;;;;;38.03;24.00;;;5.30;1.00;;;;;;6297488;28;20229;-55
2022/03/24 02:30:18;;;;;;;36.60;24.20;;;5.20;1.00;;;;;;6289216;28;20477;-56
2022/03/24 02:33:22;;;;;;;30.60;23.03;;;4.80;1.00;;;;;;6304806;28;20308;-54
2022/03/24 02:36:25;;;;;;;36.07;25.57;;;5.40;1.00;;;;;;6308222;28;20265;-54
2022/03/24 02:39:29;;;;;;;35.77;24.90;;;5.20;1.00;;;;;;6298016;28;20232;-54
2022/03/24 02:42:32;;;;;;;41.50;26.67;;;5.30;1.00;;;;;;6308828;28;20569;-54
2022/03/24 02:45:36;;;;;;;34.63;23.77;;;5.00;1.00;;;;;;6309225;28;20243;-55
2022/03/24 02:48:38;;;;;;;35.07;25.07;;;5.30;1.00;;;;;;6307498;28;20319;-54
2022/03/24 02:51:42;;;;;;;37.83;24.90;;;5.30;1.00;;;;;;6306149;28;20243;-54
2022/03/24 02:54:46;;;;;;;41.43;25.63;;;5.00;1.00;;;;;;6303547;28;20379;-54
2022/03/24 02:57:50;;;;;;;39.27;25.20;;;5.00;1.00;;;;;;6307312;28;20811;-54
2022/03/24 03:00:53;;;;;;;38.20;25.60;;;5.00;1.00;;;;;;6309645;28;20386;-55
2022/03/24 03:03:56;;;;;;;38.03;24.50;;;4.90;1.00;;;;;;6299778;28;20239;-55
2022/03/24 03:07:02;;;;;;;38.00;25.80;;;4.90;1.00;;;;;;6308964;28;20608;-54
2022/03/24 03:10:07;;;;;;;41.87;25.23;;;5.00;1.00;;;;;;6317599;28;20297;-54
2022/03/24 03:13:10;;;;;;;38.47;25.50;;;5.20;1.00;;;;;;6292596;28;20776;-53
2022/03/24 03:16:13;;;;;;;37.33;26.23;;;4.90;1.00;;;;;;6294469;28;20277;-54
2022/03/24 03:19:19;;;;;;;38.97;25.73;;;4.70;1.00;;;;;;6291540;28;21569;-54
2022/03/24 03:22:22;;;;;;;39.20;25.83;;;4.80;1.00;;;;;;6289579;28;20259;-54
2022/03/24 03:25:26;;;;;;;39.33;26.77;;;4.80;1.00;;;;;;6286048;28;20323;-53
2022/03/24 03:28:28;;;;;;;35.37;25.17;;;5.00;1.00;;;;;;6296233;28;20243;-54
2022/03/24 03:31:31;;;;;;;45.27;27.80;;;4.60;1.00;;;;;;6299054;28;20298;-54
2022/03/24 03:34:34;;;;;;;43.70;28.80;;;4.50;1.00;;;;;;6296513;28;20728;-53
2022/03/24 03:37:38;;;;;;;39.17;27.87;;;4.90;1.00;;;;;;6307482;28;20320;-54
2022/03/24 03:40:42;;;;;;;41.30;28.90;;;4.70;1.00;;;;;;6312451;28;20283;-55
2022/03/24 03:43:45;;;;;;;43.40;28.10;;;4.50;1.00;;;;;;6308956;28;20296;-53
2022/03/24 03:46:48;;;;;;;40.83;27.67;;;4.40;1.00;;;;;;6309033;28;20315;-54
2022/03/24 03:49:51;;;;;;;39.40;26.97;;;4.60;1.00;;;;;;6304160;28;20767;-55
2022/03/24 03:53:04;;;;;;;39.17;27.07;;;4.50;1.00;;;;;;6300784;28;20232;-54
2022/03/24 03:56:09;;;;;;;40.53;29.13;;;4.40;1.00;;;;;;6311514;28;20335;-54
2022/03/24 03:59:12;;;;;;;43.57;30.20;;;4.20;1.00;;;;;;6300053;28;20717;-53
2022/03/24 04:02:14;;;;;;;45.93;29.67;;;4.30;1.00;;;;;;6306409;28;20240;-53
2022/03/24 04:05:23;;;;;;;47.80;31.30;;;4.50;1.00;;;;;;6309400;28;20615;-53
2022/03/24 04:08:26;;;;;;;43.60;29.63;;;4.60;1.00;;;;;;6311995;28;20358;-54
2022/03/24 04:11:30;;;;;;;48.27;31.70;;;4.20;1.00;;;;;;6306496;28;20324;-53
2022/03/24 04:14:34;;;;;;;48.57;31.10;;;4.20;1.00;;;;;;6311219;28;20276;-54
2022/03/24 04:17:37;;;;;;;50.13;32.00;;;4.00;1.00;;;;;;6311484;28;20232;-55
2022/03/24 04:20:40;;;;;;;50.23;31.13;;;4.10;1.00;;;;;;6308161;28;20462;-54
2022/03/24 04:23:44;;;;;;;48.87;31.63;;;4.10;1.00;;;;;;6306908;28;20329;-54
2022/03/24 04:26:48;;;;;;;49.53;31.97;;;4.20;1.00;;;;;;6307121;28;20251;-55
2022/03/24 04:29:51;;;;;;;46.30;32.13;;;4.30;1.00;;;;;;6313540;28;20625;-59
2022/03/24 04:32:54;;;;;;;47.30;32.27;;;4.10;1.00;;;;;;6293541;28;20271;-54
2022/03/24 04:35:58;;;;;;;46.57;32.23;;;3.90;1.00;;;;;;6307757;28;20260;-54
2022/03/24 04:39:02;;;;;;;47.93;31.50;;;3.70;1.00;;;;;;6301618;28;20507;-55
2022/03/24 04:42:08;;;;;;;48.13;33.13;;;4.00;1.00;;;;;;6293781;28;20335;-54
2022/03/24 04:45:11;;;;;;;48.07;32.37;;;3.70;1.00;;;;;;6309939;28;20934;-54
2022/03/24 04:48:14;;;;;;;43.97;29.73;;;3.70;1.00;;;;;;6306590;28;20713;-59
2022/03/24 04:51:17;;;;;;;48.33;31.07;;;3.70;1.00;;;;;;6310510;28;20765;-54
2022/03/24 04:54:20;;;;;;;44.47;31.27;;;3.60;1.00;;;;;;6309094;28;20356;-54
2022/03/24 04:57:24;;;;;;;48.67;32.80;;;3.90;1.00;;;;;;6311021;28;20319;-54
2022/03/24 05:00:27;;;;;;;51.60;33.97;;;3.70;1.00;;;;;;6306979;28;20315;-53
2022/03/24 05:03:30;;;;;;;49.17;32.00;;;3.40;1.00;;;;;;6309413;28;20351;-53
2022/03/24 05:06:33;;;;;;;48.20;31.20;;;3.80;1.00;;;;;;6303149;28;20770;-54
2022/03/24 05:09:35;;;;;;;46.73;32.53;;;3.50;1.00;;;;;;6305028;28;20278;-54
2022/03/24 05:12:41;;;;;;;48.73;32.97;;;3.80;1.00;;;;;;6309306;28;20994;-53
2022/03/24 05:15:43;;;;;;;54.27;33.23;;;3.80;1.00;;;;;;6310488;28;20250;-54
2022/03/24 05:18:46;;;;;;;55.80;34.73;;;3.40;1.00;;;;;;6308445;28;20260;-54
2022/03/24 05:21:49;;;;;;;48.63;32.43;;;3.60;1.00;;;;;;6309529;28;20299;-54
2022/03/24 05:24:51;;;;;;;51.83;33.87;;;3.60;1.00;;;;;;6309081;28;20233;-54
2022/03/24 05:27:55;;;;;;;49.20;33.30;;;3.60;1.00;;;;;;6303736;28;20534;-53
2022/03/24 05:30:58;;;;;;;49.27;32.57;;;3.40;1.00;;;;;;6301321;28;20225;-53
2022/03/24 05:34:01;;;;;;;54.67;33.97;;;3.60;1.00;;;;;;6302568;28;20239;-53
2022/03/24 05:37:04;;;;;;;51.37;34.37;;;3.70;1.00;;;;;;6300943;28;20221;-54
2022/03/24 05:40:08;;;;;;;50.07;33.77;;;3.80;1.00;;;;;;6308598;28;20224;-54
2022/03/24 05:43:12;;;;;;;50.57;32.93;;;3.80;1.00;;;;;;6301939;28;20236;-54
2022/03/24 05:46:15;;;;;;;52.00;34.07;;;3.90;1.00;;;;;;6292831;28;20446;-54
2022/03/24 05:49:19;;;;;;;45.43;30.93;;;3.70;1.00;;;;;;6304489;28;20251;-55
2022/03/24 05:52:22;;;;;;;53.50;35.10;;;3.70;1.00;;;;;;6299069;28;20327;-55
2022/03/24 05:55:25;;;;;;;48.10;33.03;;;3.90;1.00;;;;;;6302030;28;20540;-54
2022/03/24 05:58:29;;;;;;;48.90;32.67;;;3.80;1.00;;;;;;6308255;28;20309;-54
2022/03/24 06:01:33;;;;;;;52.60;35.20;;;4.00;1.00;;;;;;6307540;28;20732;-54
2022/03/24 06:04:40;;;;;;;50.20;33.53;;;4.00;1.00;;;;;;6305261;28;20233;-54
2022/03/24 06:07:43;;;;;;;54.87;35.30;;;4.00;1.00;;;;;;6298407;28;20775;-53
2022/03/24 06:10:48;;;;;;;52.83;34.53;;;4.30;1.00;;;;;;6304689;28;20307;-53
2022/03/24 06:13:53;;;;;;;50.70;34.33;;;4.10;1.00;;;;;;6308616;28;20742;-52
2022/03/24 06:16:56;;;;;;;51.87;35.23;;;4.30;1.00;;;;;;6309141;28;20316;-54
2022/03/24 06:19:59;;;;;;;57.30;37.27;;;4.50;1.00;;;;;;6297846;28;20316;-54
2022/03/24 06:23:02;;;;;;;51.87;34.33;;;4.40;1.00;;;;;;6308131;28;20236;-53
2022/03/24 06:26:04;;;;;;;53.83;35.70;;;4.50;1.00;;;;;;6308085;28;20232;-54
2022/03/24 06:29:10;;;;;;;52.67;35.83;;;4.80;1.00;;;;;;6306972;28;20315;-54
2022/03/24 06:32:13;;;;;;;58.77;35.43;;;4.70;1.00;;;;;;6300126;28;20274;-56
2022/03/24 06:35:16;;;;;;;48.53;33.27;;;4.80;1.00;;;;;;6303854;28;20788;-54
2022/03/24 06:38:19;;;;;;;55.13;34.87;;;5.20;1.00;;;;;;6297615;28;20298;-54
2022/03/24 06:41:22;;;;;;;52.90;35.57;;;5.30;1.00;;;;;;6301929;28;20233;-54
2022/03/24 06:44:27;;;;;;;51.77;34.27;;;5.50;1.00;;;;;;6293416;28;20321;-54
2022/03/24 06:47:30;;;;;;;50.00;33.60;;;5.40;1.00;;;;;;6304280;28;20292;-54
2022/03/24 06:50:32;;;;;;;50.80;35.07;;;5.80;1.00;;;;;;6303136;28;20301;-59
2022/03/24 06:53:35;;;;;;;44.93;32.53;;;5.90;1.00;;;;;;6306597;28;20743;-54
2022/03/24 06:56:38;;;;;;;52.63;33.50;;;6.00;1.00;;;;;;6306835;28;20328;-55
2022/03/24 06:59:42;;;;;;;48.30;33.77;;;6.40;1.00;;;;;;6302437;28;20294;-54
2022/03/24 07:02:46;;;;;;;50.50;33.73;;;6.20;1.00;;;;;;6303677;28;20307;-54
2022/03/24 07:05:49;;;;;;;57.97;35.53;;;6.30;1.00;;;;;;6307372;28;20274;-56
2022/03/24 07:08:52;;;;;;;51.83;35.00;;;6.60;1.00;;;;;;6308463;28;20319;-54
2022/03/24 07:11:55;;;;;;;46.93;33.03;;;6.50;1.00;;;;;;6300782;28;20245;-53
2022/03/24 07:14:59;;;;;;;51.57;34.67;;;6.70;1.00;;;;;;6309915;28;20319;-53
2022/03/24 07:18:03;;;;;;;56.53;36.07;;;6.80;1.00;;;;;;6298118;28;20297;-54
2022/03/24 07:21:06;;;;;;;52.30;35.50;;;7.00;1.00;;;;;;6313255;28;20819;-55
2022/03/24 07:24:09;;;;;;;54.80;33.83;;;7.20;1.00;;;;;;6305522;28;20237;-55
2022/03/24 07:27:14;;;;;;;52.03;34.57;;;7.10;1.00;;;;;;6311428;28;20289;-55
2022/03/24 07:30:18;;;;;;;49.37;33.90;;;7.30;1.00;;;;;;6313265;28;20224;-55
2022/03/24 07:33:21;;;;;;;47.23;33.80;;;7.70;1.00;;;;;;6310485;28;20508;-54
2022/03/24 07:36:25;;;;;;;49.73;33.50;;;8.50;1.00;;;;;;6313102;28;20349;-55
2022/03/24 07:39:28;;;;;;;51.70;35.07;;;8.80;1.00;;;;;;6312551;28;20654;-54
2022/03/24 07:42:31;;;;;;;44.40;34.30;;;8.90;1.00;;;;;;6307189;28;20641;-53
2022/03/24 07:45:38;;;;;;;54.37;34.83;;;8.80;1.00;;;;;;6313128;28;20243;-54
2022/03/24 07:48:43;;;;;;;49.00;33.67;;;8.80;1.00;;;;;;6312195;28;20262;-55
2022/03/24 07:51:45;;;;;;;50.77;33.80;;;8.80;1.00;;;;;;6303847;28;20268;-55
2022/03/24 07:54:58;;;;;;;50.47;34.50;;;8.70;1.00;;;;;;6312184;28;20689;-53
2022/03/24 07:58:01;;;;;;;56.97;34.40;;;8.80;1.00;;;;;;6311841;28;20535;-55
2022/03/24 08:01:05;;;;;;;49.83;33.13;;;8.70;1.00;;;;;;6311405;28;20323;-58
2022/03/24 08:04:08;;;;;;;52.43;34.47;;;8.80;1.00;;;;;;6311156;28;20605;-55
2022/03/24 08:07:11;;;;;;;58.23;36.73;;;8.90;1.00;;;;;;6304683;28;20777;-53
2022/03/24 08:10:14;;;;;;;47.00;33.93;;;8.90;1.00;;;;;;6307041;28;20744;-54
2022/03/24 08:13:19;;;;;;;48.13;33.00;;;9.00;1.00;;;;;;6311986;28;20720;-54
2022/03/24 08:16:24;;;;;;;61.20;35.17;;;9.20;1.00;;;;;;6311941;28;20233;-55
2022/03/24 08:19:27;;;;;;;52.67;34.80;;;9.30;1.00;;;;;;6308388;28;20698;-55
2022/03/24 08:22:30;;;;;;;51.03;33.87;;;9.50;1.00;;;;;;6310547;28;20798;-53
2022/03/24 08:25:33;;;;;;;52.20;34.97;;;9.70;1.00;;;;;;6308354;28;20236;-53
2022/03/24 08:28:36;;;;;;;48.63;34.10;;;9.90;1.00;;;;;;6311311;28;20244;-54
2022/03/24 08:31:40;;;;;;;46.00;33.67;;;10.00;1.00;;;;;;6311890;28;20644;-53
2022/03/24 08:34:43;;;;;;;47.93;33.73;;;10.20;1.00;;;;;;6308327;28;20768;-54
2022/03/24 08:37:46;;;;;;;49.40;32.77;;;10.30;1.00;;;;;;6305638;28;20360;-54
2022/03/24 08:40:49;;;;;;;49.27;33.33;;;10.40;1.00;;;;;;6311161;28;20646;-54
2022/03/24 08:43:52;;;;;;;44.60;31.93;;;10.40;1.00;;;;;;6308601;28;20237;-53
2022/03/24 08:46:56;;;;;;;53.53;34.20;;;10.60;1.00;;;;;;6311428;28;20225;-55
2022/03/24 08:49:58;;;;;;;45.57;31.57;;;10.70;1.00;;;;;;6307070;28;20237;-55
2022/03/24 08:53:02;;;;;;;49.50;32.57;;;10.80;1.00;;;;;;6309914;28;20240;-54
2022/03/24 08:56:06;;;;;;;46.33;32.03;;;11.00;1.00;;;;;;6308383;28;20327;-53
2022/03/24 08:59:09;;;;;;;44.77;30.87;;;11.00;1.00;;;;;;6303199;28;20217;-54
2022/03/24 09:02:13;;;;;;;50.33;34.17;;;11.10;1.00;;;;;;6304851;28;20701;-53
2022/03/24 09:05:18;;;;;;;50.27;32.47;;;11.30;1.00;;;;;;6308477;28;20313;-53
2022/03/24 09:08:20;;;;;;;50.97;32.33;;;11.50;1.00;;;;;;6304105;28;20312;-55
2022/03/24 09:11:23;;;;;;;47.17;32.63;;;11.70;1.00;;;;;;6310530;28;20290;-53
2022/03/24 09:14:26;;;;;;;52.77;32.67;;;11.80;1.00;;;;;;6310211;28;20619;-54
2022/03/24 09:17:30;;;;;;;44.47;31.70;;;11.90;1.00;;;;;;6303724;28;20241;-54
2022/03/24 09:20:33;;;;;;;42.37;32.20;;;12.00;1.00;;;;;;6309693;28;20306;-55
2022/03/24 09:23:36;;;;;;;43.83;32.27;;;12.10;1.00;;;;;;6309587;28;20247;-54
2022/03/24 09:26:39;;;;;;;44.83;31.27;;;12.20;1.00;;;;;;6307874;28;20709;-54
2022/03/24 09:29:42;;;;;;;44.70;31.33;;;12.20;1.00;;;;;;6308344;28;20236;-54
2022/03/24 09:32:48;;;;;;;45.83;30.57;;;12.40;1.00;;;;;;6307133;28;20337;-55
2022/03/24 09:35:51;;;;;;;42.50;29.80;;;12.60;1.00;;;;;;6306851;28;20306;-53
2022/03/24 09:38:54;;;;;;;38.43;29.07;;;12.70;1.00;;;;;;6303399;28;20676;-55
2022/03/24 09:41:59;;;;;;;44.60;30.40;;;12.90;1.00;;;;;;6308468;28;20233;-56
2022/03/24 09:45:05;;;;;;;43.60;29.97;;;13.00;1.00;;;;;;6300617;28;20248;-55
2022/03/24 09:48:10;;;;;;;37.40;27.80;;;13.00;1.00;;;;;;6308406;28;20232;-55
2022/03/24 09:51:15;;;;;;;35.70;26.70;;;13.00;1.00;;;;;;6304896;28;20232;-55
2022/03/24 09:54:18;;;;;;;36.23;23.30;;;13.10;1.00;;;;;;6299311;28;20320;-55
2022/03/24 09:57:21;;;;;;;31.17;22.73;;;13.20;1.00;;;;;;6307686;28;20504;-54
2022/03/24 10:00:24;;;;;;;28.90;21.50;;;13.40;1.00;;;;;;6302000;28;20736;-55
2022/03/24 10:03:28;;;;;;;32.77;23.13;;;13.50;1.00;;;;;;6305229;28;20237;-54
2022/03/24 10:06:31;;;;;;;34.43;22.97;;;13.50;1.00;;;;;;6307090;28;20327;-56
2022/03/24 10:09:38;;;;;;;38.17;26.10;;;13.60;1.00;;;;;;6308279;28;20323;-54
2022/03/24 10:12:41;;;;;;;32.93;24.30;;;13.80;1.00;;;;;;6307131;28;20577;-54
2022/03/24 10:15:44;;;;;;;37.73;23.97;;;13.90;1.00;;;;;;6300978;28;20340;-54
2022/03/24 10:19:01;;;;;;;31.53;23.23;;;14.00;1.00;;;;;;6306117;28;20288;-54
2022/03/24 10:22:08;;;;;;;37.53;24.10;;;14.20;1.00;;;;;;6308816;28;20252;-59
2022/03/24 10:25:21;;;;;;;30.07;22.43;;;14.10;1.00;;;;;;6303130;28;20225;-54
2022/03/24 10:28:26;;;;;;;28.43;21.23;;;14.20;1.00;;;;;;6308334;28;20402;-54
2022/03/24 10:31:34;;;;;;;22.97;19.47;;;14.30;1.00;;;;;;6310130;28;20320;-54
2022/03/24 10:34:41;;;;;;;29.07;21.53;;;14.40;1.00;;;;;;6300132;28;20244;-54
2022/03/24 10:37:49;;;;;;;26.57;18.80;;;14.60;1.00;;;;;;6309032;28;20651;-53
2022/03/24 10:40:52;;;;;;;23.90;16.50;;;14.80;1.00;;;;;;6309047;28;20262;-55
2022/03/24 10:43:58;;;;;;;22.80;17.63;;;14.90;1.00;;;;;;6299660;28;20285;-54
2022/03/24 10:47:01;;;;;;;26.03;18.60;;;14.90;1.00;;;;;;6309412;28;20645;-54
2022/03/24 10:53:39;;;;;;;22.70;18.33;;;14.80;1.00;;;;;;6298306;27;20569;-55
2022/03/24 10:56:47;;;;;;;28.53;19.10;;;15.10;1.00;;;;;;6267310;28;20330;-54
2022/03/24 10:59:54;;;;;;;24.00;17.83;;;15.30;1.00;;;;;;6272071;28;20325;-54
2022/03/24 11:02:57;;;;;;;23.53;17.87;;;15.50;1.00;;;;;;6270757;28;20238;-54
2022/03/24 11:06:08;;;;;;;21.77;16.60;;;15.70;1.00;;;;;;6286926;28;20868;-56
2022/03/24 11:09:22;;;;;;;23.97;16.97;;;16.00;1.00;;;;;;6267087;28;20234;-54
2022/03/24 11:12:27;;;;;;;21.30;17.03;;;16.10;1.00;;;;;;6273683;28;20359;-56
2022/03/24 11:15:34;;;;;;;23.77;16.73;;;16.30;1.00;;;;;;6280475;28;20265;-55
2022/03/24 11:18:37;;;;;;;23.13;16.47;;;16.10;1.00;;;;;;6270788;28;20653;-55
2022/03/24 11:21:52;;;;;;;22.80;14.80;;;16.10;1.00;;;;;;6274173;28;20236;-54
2022/03/24 11:24:56;;;;;;;25.90;16.30;;;16.10;1.00;;;;;;6268811;28;20298;-55
2022/03/24 11:27:59;;;;;;;18.87;13.87;;;16.20;1.00;;;;;;6274260;28;20240;-55
2022/03/24 11:31:06;;;;;;;16.47;14.03;;;16.30;1.00;;;;;;6278546;28;20242;-54
2022/03/24 11:34:09;;;;;;;23.93;15.77;;;16.30;1.00;;;;;;6278335;28;20229;-54
2022/03/24 11:37:12;;;;;;;17.37;14.93;;;16.30;1.00;;;;;;6272402;28;20229;-55
2022/03/24 11:40:19;;;;;;;22.53;16.57;;;16.40;1.00;;;;;;6276247;28;20243;-54
2022/03/24 11:43:23;;;;;;;26.93;16.80;;;16.50;1.00;;;;;;6268539;28;20416;-54
2022/03/24 11:46:32;;;;;;;21.17;16.37;;;16.50;1.00;;;;;;6264730;28;20433;-55
2022/03/24 11:49:35;;;;;;;23.50;17.03;;;16.50;1.00;;;;;;6280012;28;20240;-55
2022/03/24 11:52:38;;;;;;;23.00;16.60;;;16.70;1.00;;;;;;6278562;28;20817;-56
2022/03/24 11:56:05;;;;;;;26.00;16.13;;;16.80;1.00;;;;;;6250089;28;20299;-53
2022/03/24 11:59:20;;;;;;;26.23;17.60;;;16.80;1.00;;;;;;6269997;28;20321;-55
2022/03/24 12:02:25;;;;;;;26.63;18.33;;;16.90;1.00;;;;;;6264617;28;20573;-54
2022/03/24 12:05:46;;;;;;;25.17;17.00;;;16.90;1.00;;;;;;6265659;28;20234;-55
2022/03/24 12:08:51;;;;;;;23.57;16.87;;;16.90;1.00;;;;;;6262938;28;20307;-55
2022/03/24 12:12:09;;;;;;;26.60;17.67;;;17.10;1.00;;;;;;6251244;28;20319;-54
2022/03/24 12:15:18;;;;;;;27.60;16.57;;;17.30;1.00;;;;;;6259954;28;20238;-54
2022/03/24 12:18:21;;;;;;;22.17;15.87;;;17.50;1.00;;;;;;6239945;28;20610;-55
2022/03/24 12:21:25;;;;;;;23.87;14.87;;;17.60;1.00;;;;;;6235408;28;20261;-55
2022/03/24 12:24:36;;;;;;;20.67;15.83;;;17.60;1.00;;;;;;6257664;28;20226;-54
2022/03/24 12:28:20;;;;;;;24.27;16.10;;;17.60;1.00;;;;;;6259418;28;20699;-53
2022/03/24 12:31:24;;;;;;;20.67;16.03;;;17.50;1.00;;;;;;6255323;28;20234;-56
2022/03/24 12:34:29;;;;;;;23.60;15.93;;;17.40;1.00;;;;;;6259191;28;20257;-54
2022/03/24 12:37:38;;;;;;;24.77;15.97;;;17.40;1.00;;;;;;6234640;28;20307;-54
2022/03/24 12:41:21;;;;;;;23.60;16.07;;;17.40;1.00;;;;;;6239505;28;20902;-54
2022/03/24 12:44:54;;;;;;;18.47;14.60;;;17.20;1.00;;;;;;6255802;28;20377;-54
2022/03/24 12:48:06;;;;;;;26.53;14.03;;;17.10;1.00;;;;;;6247976;28;20395;-54
2022/03/24 12:51:16;;;;;;;15.40;13.67;;;17.10;1.00;;;;;;6256140;28;20234;-54
2022/03/24 12:54:21;;;;;;;21.40;14.10;;;17.10;1.00;;;;;;6252615;28;20328;-54
2022/03/24 12:57:27;;;;;;;20.47;14.10;;;17.30;1.00;;;;;;6259867;28;20705;-53
2022/03/24 13:00:33;;;;;;;19.43;15.23;;;17.40;1.00;;;;;;6265992;28;20316;-54
2022/03/24 13:03:37;;;;;;;18.00;14.70;;;17.40;1.00;;;;;;6256453;28;20238;-55
2022/03/24 13:06:41;;;;;;;21.17;14.30;;;17.30;1.00;;;;;;6240008;28;20406;-55
2022/03/24 13:09:44;;;;;;;29.97;14.60;;;17.40;1.00;;;;;;6251264;28;20333;-56
2022/03/24 13:12:48;;;;;;;25.37;14.67;;;17.40;1.00;;;;;;6254152;28;20429;-55
2022/03/24 13:15:52;;;;;;;22.63;14.13;;;17.30;1.00;;;;;;6259940;28;20295;-54
2022/03/24 13:18:56;;;;;;;18.43;13.60;;;17.40;1.00;;;;;;6253408;28;20235;-55
2022/03/24 13:22:10;;;;;;;20.30;14.93;;;17.50;1.00;;;;;;6241803;28;20782;-55
2022/03/24 13:25:13;;;;;;;17.90;13.90;;;17.60;1.00;;;;;;6244883;28;20230;-53
2022/03/24 13:28:16;;;;;;;15.03;12.77;;;17.40;1.00;;;;;;6243815;28;20372;-54
2022/03/24 13:31:19;;;;;;;15.73;13.87;;;17.30;1.00;;;;;;6251046;28;20340;-55
2022/03/24 13:34:26;;;;;;;18.63;13.90;;;17.50;1.00;;;;;;6240768;28;20725;-56
2022/03/24 13:37:35;;;;;;;21.33;14.40;;;17.70;1.00;;;;;;6244772;28;20538;-55
2022/03/24 13:40:40;;;;;;;20.10;14.67;;;17.70;1.00;;;;;;6235448;28;20646;-55
2022/03/24 13:43:43;;;;;;;19.47;15.33;;;17.70;1.00;;;;;;6233315;28;20332;-53
2022/03/24 13:46:45;;;;;;;20.57;14.70;;;17.80;1.00;;;;;;6235068;28;20326;-55
2022/03/24 13:49:54;;;;;;;21.97;14.30;;;17.90;1.00;;;;;;6227940;28;20242;-54
2022/03/24 13:52:58;;;;;;;22.83;15.07;;;17.90;1.00;;;;;;6234063;28;20348;-54
2022/03/24 13:56:06;;;;;;;19.23;14.27;;;18.00;1.00;;;;;;6241338;28;20807;-56
2022/03/24 13:59:09;;;;;;;18.73;13.93;;;17.90;1.00;;;;;;6253043;28;20234;-54
2022/03/24 14:02:23;;;;;;;18.50;14.10;;;17.90;1.00;;;;;;6261645;28;20296;-55
2022/03/24 14:05:49;;;;;;;18.53;13.57;;;17.90;1.00;;;;;;6237503;28;20238;-54
2022/03/24 14:08:53;;;;;;;17.93;13.07;;;17.90;1.00;;;;;;6245698;28;20238;-55
2022/03/24 14:12:03;;;;;;;16.40;13.23;;;17.90;1.00;;;;;;6261523;28;20234;-54
2022/03/24 14:15:17;;;;;;;15.50;13.80;;;18.00;1.00;;;;;;6245163;28;20243;-54
2022/03/24 14:18:22;;;;;;;18.10;14.07;;;17.90;1.00;;;;;;6248707;28;20496;-53
2022/03/24 14:21:26;;;;;;;15.33;13.43;;;18.00;1.00;;;;;;6247140;28;20284;-56
2022/03/24 14:24:39;;;;;;;17.93;15.13;;;18.00;1.00;;;;;;6239488;28;20239;-55
2022/03/24 14:27:50;;;;;;;17.63;14.33;;;18.00;1.00;;;;;;6254140;28;20335;-55
2022/03/24 14:30:52;;;;;;;20.10;15.27;;;18.00;1.00;;;;;;6238426;28;20256;-55
2022/03/24 14:33:58;;;;;;;16.67;14.07;;;18.00;1.00;;;;;;6243491;28;20372;-55
2022/03/24 14:37:11;;;;;;;19.60;13.73;;;18.00;1.00;;;;;;6253010;28;20731;-56
2022/03/24 14:40:16;;;;;;;18.17;13.87;;;17.90;1.00;;;;;;6252302;28;20230;-55
2022/03/24 14:43:19;;;;;;;14.20;12.40;;;17.80;1.00;;;;;;6241068;28;20497;-55
2022/03/24 14:46:22;;;;;;;17.10;13.57;;;17.90;1.00;;;;;;6255710;28;20758;-55
2022/03/24 14:49:25;;;;;;;19.40;14.30;;;17.70;1.00;;;;;;6257062;28;20287;-55
2022/03/24 14:52:30;;;;;;;17.60;14.30;;;17.70;1.00;;;;;;6246549;28;20350;-55
2022/03/24 14:55:33;;;;;;;20.37;15.20;;;17.70;1.00;;;;;;6256372;28;20699;-54
2022/03/24 14:58:36;;;;;;;18.47;14.70;;;17.70;1.00;;;;;;6257783;28;20491;-54
2022/03/24 15:01:39;;;;;;;17.37;14.30;;;17.70;1.00;;;;;;6256854;28;20245;-55
2022/03/24 15:04:42;;;;;;;17.93;13.37;;;17.70;1.00;;;;;;6254169;28;20238;-55
2022/03/24 15:07:48;;;;;;;16.60;13.33;;;17.70;1.00;;;;;;6251304;28;20515;-54
2022/03/24 15:10:51;;;;;;;14.97;12.40;;;17.70;1.00;;;;;;6244967;28;20383;-54
2022/03/24 15:17:14;;;;;;;14.67;11.70;;;17.70;1.00;;;;;;6231919;28;20366;-54
2022/03/24 15:20:17;;;;;;;11.50;10.37;;;17.70;1.00;;;;;;6225090;28;20273;-54
2022/03/24 15:23:21;;;;;;;13.73;11.17;;;17.70;1.00;;;;;;6231441;28;20285;-54
2022/03/24 15:26:24;;;;;;;13.67;12.07;;;17.70;1.00;;;;;;6264079;28;20584;-54
2022/03/24 15:29:27;;;;;;;16.47;11.67;;;17.50;1.00;;;;;;6259893;28;20754;-55
2022/03/24 15:36:52;;;;;;;13.97;11.37;;;17.20;1.00;;;;;;6229800;28;20230;-56
2022/03/24 15:39:56;;;;;;;15.30;12.73;;;17.00;1.00;;;;;;6246301;28;20233;-55
2022/03/24 15:43:02;;;;;;;15.20;11.50;;;16.90;1.00;;;;;;6241862;28;20242;-55
2022/03/24 15:46:07;;;;;;;14.83;12.13;;;16.70;1.00;;;;;;6231941;28;20234;-55
2022/03/24 15:49:10;;;;;;;16.57;13.17;;;16.60;1.00;;;;;;6249844;28;20671;-55
2022/03/24 15:52:13;;;;;;;13.13;11.83;;;16.50;1.00;;;;;;6248233;28;20519;-55
2022/03/24 15:55:18;;;;;;;15.30;12.83;;;16.30;1.00;;;;;;6249007;28;20686;-54
2022/03/24 15:58:21;;;;;;;14.43;12.00;;;16.20;1.00;;;;;;6257735;28;20292;-55
2022/03/24 16:01:24;;;;;;;14.87;12.20;;;16.10;1.00;;;;;;6244951;28;20800;-55
2022/03/24 16:04:27;;;;;;;19.43;12.97;;;16.00;1.00;;;;;;6257248;28;20238;-54
2022/03/24 16:07:29;;;;;;;16.23;13.20;;;15.80;1.00;;;;;;6261006;28;20238;-55